HE36 weather

Bir Jifjafah Airport
North Sinai Governorate, Egypt

Public forecast

Using degrees Celsius for public forecast. Weather courtesy of forecast.io.

METAR (pilot weather report)

Report is more than 6 hours old.

Closest report is El Arish International Airport, 53.3 nm (98.7 km) NE. Retrieved 2019/04/19 09:00 UTC (5 days ago):

HEAR 190900Z 29011KT 9999 SCT030 20/11 Q1018 NOSIG

TAF (pilot weather forecast)

Closest forecast is El Arish International Airport, 53.3 nm (98.7 km) NE. Retrieved 2019/04/24 06:48 UTC (0 seconds ago):

TAF HEAR 240500Z 2406/2512 01010KT 9999 SCT025